Time,TemperatureF,DewpointF,PressureIn,WindDirection,WindDirectionDegrees,WindSpeedMPH,WindSpeedGustMPH,Humidity,HourlyPrecipIn,Conditions,Clouds,dailyrainin,SoftwareType,DateUTC
2013-10-30 00:00:00,63.4,57.5,30.20,NE,44,0.0,0.0,81,0.00,SCT,,0.00,WeatherDisplay:10.37,2013-10-30 04:00:00,
2013-10-30 00:01:00,63.4,57.5,30.20,NE,44,0.0,0.0,81,0.00,SCT,,0.00,WeatherDisplay:10.37,2013-10-30 04:01:00,
2013-10-30 00:03:00,63.4,57.5,30.20,NE,44,0.0,0.0,81,0.00,SCT,,0.00,WeatherDisplay:10.37,2013-10-30 04:03:00,
2013-10-30 00:08:00,63.2,57.3,30.20,NE,44,0.0,0.0,81,0.00,SCT,,0.00,WeatherDisplay:10.37,2013-10-30 04:08:00,
2013-10-30 00:13:00,63.2,57.3,30.19,NE,44,0.0,0.0,81,0.00,SCT,,0.00,WeatherDisplay:10.37,2013-10-30 04:13:00,
2013-10-30 00:18:00,63.1,57.2,30.19,NE,43,0.0,0.0,81,0.00,SCT,,0.00,WeatherDisplay:10.37,2013-10-30 04:18:00,
2013-10-30 00:23:00,63.1,57.2,30.19,NE,44,0.0,0.0,81,0.00,SCT,,0.00,WeatherDisplay:10.37,2013-10-30 04:23:00,
2013-10-30 00:28:00,62.9,57.0,30.19,NE,44,0.0,0.0,81,0.00,SCT,,0.00,WeatherDisplay:10.37,2013-10-30 04:28:00,
2013-10-30 00:33:00,62.9,57.3,30.19,NE,44,0.0,0.0,82,0.00,SCT,,0.00,WeatherDisplay:10.37,2013-10-30 04:33:00,
2013-10-30 00:38:00,62.9,57.3,30.19,NE,44,0.0,0.0,82,0.00,SCT,,0.00,WeatherDisplay:10.37,2013-10-30 04:38:00,
2013-10-30 00:43:00,62.7,57.1,30.19,NE,44,0.0,0.0,82,0.00,SCT,,0.00,WeatherDisplay:10.37,2013-10-30 04:43:00,
2013-10-30 00:48:00,62.7,57.1,30.19,NE,44,0.0,0.0,82,0.00,SCT,,0.00,WeatherDisplay:10.37,2013-10-30 04:48:00,
2013-10-30 00:53:00,62.6,57.0,30.18,NE,43,0.0,0.0,82,0.00,SCT,,0.00,WeatherDisplay:10.37,2013-10-30 04:53:00,
2013-10-30 00:58:00,62.6,57.0,30.18,NE,43,0.0,0.0,82,0.00,SCT,,0.00,WeatherDisplay:10.37,2013-10-30 04:58:00,
2013-10-30 01:03:00,62.4,56.8,30.18,NE,44,0.0,0.0,82,0.00,SCT,,0.00,WeatherDisplay:10.37,2013-10-30 05:03:00,
2013-10-30 01:08:00,62.4,57.2,30.18,NE,44,0.0,0.0,83,0.00,SCT,,0.00,WeatherDisplay:10.37,2013-10-30 05:08:00,
2013-10-30 01:13:00,62.3,57.1,30.17,NE,44,0.0,0.0,83,0.00,SCT,,0.00,WeatherDisplay:10.37,2013-10-30 05:13:00,
2013-10-30 01:18:00,62.3,57.1,30.18,NE,43,0.0,0.0,83,0.00,SCT,,0.00,WeatherDisplay:10.37,2013-10-30 05:18:00,
2013-10-30 01:24:00,62.1,56.9,30.17,NE,43,0.0,0.0,83,0.00,SCT,,0.00,WeatherDisplay:10.37,2013-10-30 05:24:00,
2013-10-30 01:29:00,62.0,56.8,30.17,NE,44,0.0,0.0,83,0.00,SCT,,0.00,WeatherDisplay:10.37,2013-10-30 05:29:00,
2013-10-30 01:34:00,62.0,56.8,30.17,NE,44,0.0,0.0,83,0.00,SCT,,0.00,WeatherDisplay:10.37,2013-10-30 05:34:00,
2013-10-30 01:39:00,61.8,56.6,30.17,NE,44,0.0,0.0,83,0.00,SCT,,0.00,WeatherDisplay:10.37,2013-10-30 05:39:00,
2013-10-30 01:44:00,61.8,56.6,30.17,NE,44,0.0,0.0,83,0.00,SCT,,0.00,WeatherDisplay:10.37,2013-10-30 05:44:00,
2013-10-30 01:49:00,61.6,56.4,30.16,NE,44,0.0,0.0,83,0.00,SCT,,0.00,WeatherDisplay:10.37,2013-10-30 05:49:00,
2013-10-30 01:54:00,61.6,56.4,30.16,NE,43,0.0,0.0,83,0.00,SCT,,0.00,WeatherDisplay:10.37,2013-10-30 05:54:00,
2013-10-30 01:59:00,61.5,56.3,30.16,NE,44,0.0,0.0,83,0.00,SCT,,0.00,WeatherDisplay:10.37,2013-10-30 05:59:00,
2013-10-30 02:04:00,61.5,56.3,30.16,NE,44,0.0,0.0,83,0.00,CLR,,0.00,WeatherDisplay:10.37,2013-10-30 06:04:00,
2013-10-30 02:09:00,61.3,56.1,30.16,NE,44,0.0,0.0,83,0.00,CLR,,0.00,WeatherDisplay:10.37,2013-10-30 06:09:00,
2013-10-30 02:14:00,61.3,56.1,30.16,NE,44,0.0,0.0,83,0.00,CLR,,0.00,WeatherDisplay:10.37,2013-10-30 06:14:00,
2013-10-30 02:19:00,61.2,56.0,30.16,NE,44,0.0,0.0,83,0.00,CLR,,0.00,WeatherDisplay:10.37,2013-10-30 06:19:00,
2013-10-30 02:24:00,61.2,56.0,30.16,NE,44,0.0,0.0,83,0.00,CLR,,0.00,WeatherDisplay:10.37,2013-10-30 06:24:00,
2013-10-30 02:29:00,61.0,55.8,30.16,NE,43,0.0,0.0,83,0.00,CLR,,0.00,WeatherDisplay:10.37,2013-10-30 06:29:00,
2013-10-30 02:34:00,61.0,56.1,30.16,NE,44,0.0,0.0,84,0.00,CLR,,0.00,WeatherDisplay:10.37,2013-10-30 06:34:00,
2013-10-30 02:39:00,61.0,56.1,30.15,NE,44,0.0,0.0,84,0.00,CLR,,0.00,WeatherDisplay:10.37,2013-10-30 06:39:00,
2013-10-30 02:44:00,60.9,56.0,30.16,NE,44,0.0,0.0,84,0.00,CLR,,0.00,WeatherDisplay:10.37,2013-10-30 06:44:00,
2013-10-30 02:49:00,60.9,56.0,30.16,NE,44,0.0,0.0,84,0.00,CLR,,0.00,WeatherDisplay:10.37,2013-10-30 06:49:00,
2013-10-30 02:54:00,60.7,55.8,30.15,NE,44,0.0,0.0,84,0.00,CLR,,0.00,WeatherDisplay:10.37,2013-10-30 06:54:00,
2013-10-30 02:59:00,60.7,55.8,30.15,NE,44,0.0,0.0,84,0.00,CLR,,0.00,WeatherDisplay:10.37,2013-10-30 06:59:00,
2013-10-30 03:04:00,60.5,55.6,30.15,NE,44,0.0,0.0,84,0.00,CLR,,0.00,WeatherDisplay:10.37,2013-10-30 07:04:00,
2013-10-30 03:09:00,60.5,55.6,30.15,NE,43,0.0,0.0,84,0.00,CLR,,0.00,WeatherDisplay:10.37,2013-10-30 07:09:00,
2013-10-30 03:14:00,60.5,55.6,30.15,NE,44,0.0,0.0,84,0.00,CLR,,0.00,WeatherDisplay:10.37,2013-10-30 07:14:00,
2013-10-30 03:19:00,60.4,55.5,30.15,NE,43,0.0,0.0,84,0.00,CLR,,0.00,WeatherDisplay:10.37,2013-10-30 07:19:00,
2013-10-30 03:24:00,60.4,55.5,30.15,NE,44,0.0,0.0,84,0.00,CLR,,0.00,WeatherDisplay:10.37,2013-10-30 07:24:00,
2013-10-30 03:29:00,60.4,55.9,30.15,NE,43,0.0,0.0,85,0.00,CLR,,0.00,WeatherDisplay:10.37,2013-10-30 07:29:00,
2013-10-30 03:34:00,60.2,55.7,30.15,NE,43,0.0,0.0,85,0.00,CLR,,0.00,WeatherDisplay:10.37,2013-10-30 07:34:00,
2013-10-30 03:39:00,60.2,55.7,30.15,NE,44,0.0,0.0,85,0.00,CLR,,0.00,WeatherDisplay:10.37,2013-10-30 07:39:00,
2013-10-30 03:44:00,60.2,55.7,30.15,NE,44,0.0,0.0,85,0.00,CLR,,0.00,WeatherDisplay:10.37,2013-10-30 07:44:00,
2013-10-30 03:49:00,60.1,55.6,30.15,NE,43,0.0,0.0,85,0.00,CLR,,0.00,WeatherDisplay:10.37,2013-10-30 07:49:00,
2013-10-30 03:54:00,60.1,55.6,30.15,NE,43,0.0,0.0,85,0.00,CLR,,0.00,WeatherDisplay:10.37,2013-10-30 07:54:00,
2013-10-30 03:59:00,60.1,55.6,30.15,NE,43,0.0,0.0,85,0.00,CLR,,0.00,WeatherDisplay:10.37,2013-10-30 07:59:00,
2013-10-30 04:04:00,60.1,55.6,30.15,NE,44,0.0,0.0,85,0.00,FEW,,0.00,WeatherDisplay:10.37,2013-10-30 08:04:00,
2013-10-30 04:09:00,60.1,55.6,30.15,NE,44,0.0,0.0,85,0.00,FEW,,0.00,WeatherDisplay:10.37,2013-10-30 08:09:00,
2013-10-30 04:14:00,60.1,55.9,30.15,NE,43,0.0,0.0,86,0.00,FEW,,0.00,WeatherDisplay:10.37,2013-10-30 08:14:00,
2013-10-30 04:19:00,60.1,55.9,30.15,NE,43,0.0,0.0,86,0.00,FEW,,0.00,WeatherDisplay:10.37,2013-10-30 08:19:00,
2013-10-30 04:24:00,60.1,55.9,30.15,NE,44,0.0,0.0,86,0.00,FEW,,0.00,WeatherDisplay:10.37,2013-10-30 08:24:00,
2013-10-30 04:29:00,60.1,55.9,30.15,NE,44,0.0,0.0,86,0.00,FEW,,0.00,WeatherDisplay:10.37,2013-10-30 08:29:00,
2013-10-30 04:34:00,60.1,55.9,30.15,NE,44,0.0,0.0,86,0.00,FEW,,0.00,WeatherDisplay:10.37,2013-10-30 08:34:00,
2013-10-30 04:39:00,60.1,55.9,30.15,NE,44,0.0,0.0,86,0.00,FEW,,0.00,WeatherDisplay:10.37,2013-10-30 08:39:00,
2013-10-30 04:44:00,60.1,55.9,30.15,NE,43,0.0,0.0,86,0.00,FEW,,0.00,WeatherDisplay:10.37,2013-10-30 08:44:00,
2013-10-30 04:49:00,60.1,55.9,30.15,NE,44,0.0,0.0,86,0.00,FEW,,0.00,WeatherDisplay:10.37,2013-10-30 08:49:00,
2013-10-30 04:54:00,59.9,55.7,30.15,NE,43,0.0,0.0,86,0.00,FEW,,0.00,WeatherDisplay:10.37,2013-10-30 08:54:00,
2013-10-30 04:59:00,59.9,55.7,30.15,NE,44,0.0,0.0,86,0.00,FEW,,0.00,WeatherDisplay:10.37,2013-10-30 08:59:00,
2013-10-30 05:04:00,59.9,55.7,30.15,NE,44,0.0,0.0,86,0.00,SCT,,0.00,WeatherDisplay:10.37,2013-10-30 09:04:00,
2013-10-30 05:09:00,59.9,55.7,30.15,NE,44,0.0,0.0,86,0.00,SCT,,0.00,WeatherDisplay:10.37,2013-10-30 09:09:00,
2013-10-30 05:14:00,59.9,56.0,30.15,NE,44,0.0,0.0,87,0.00,SCT,,0.00,WeatherDisplay:10.37,2013-10-30 09:14:00,
2013-10-30 05:19:00,59.9,56.0,30.15,NE,44,0.0,0.0,87,0.00,SCT,,0.00,WeatherDisplay:10.37,2013-10-30 09:19:00,
2013-10-30 05:24:00,59.9,56.0,30.15,NE,43,0.0,0.0,87,0.00,SCT,,0.00,WeatherDisplay:10.37,2013-10-30 09:24:00,
2013-10-30 05:29:00,59.9,56.0,30.15,NE,44,0.0,0.0,87,0.00,SCT,,0.00,WeatherDisplay:10.37,2013-10-30 09:29:00,
2013-10-30 05:34:00,59.8,55.9,30.15,NE,43,0.0,0.0,87,0.00,SCT,,0.00,WeatherDisplay:10.37,2013-10-30 09:34:00,
2013-10-30 05:39:00,59.9,56.0,30.16,NE,43,0.0,0.0,87,0.00,SCT,,0.00,WeatherDisplay:10.37,2013-10-30 09:39:00,
2013-10-30 05:44:00,59.9,56.0,30.16,NE,43,0.0,0.0,87,0.00,SCT,,0.00,WeatherDisplay:10.37,2013-10-30 09:44:00,
2013-10-30 05:49:00,59.9,56.0,30.16,NE,44,0.0,0.0,87,0.00,SCT,,0.00,WeatherDisplay:10.37,2013-10-30 09:49:00,
2013-10-30 05:54:00,59.9,56.0,30.16,NE,43,0.0,0.0,87,0.00,SCT,,0.00,WeatherDisplay:10.37,2013-10-30 09:54:00,
2013-10-30 05:59:00,60.1,56.2,30.16,NE,43,0.0,0.0,87,0.00,SCT,,0.00,WeatherDisplay:10.37,2013-10-30 09:59:00,
2013-10-30 06:04:00,60.1,56.2,30.16,NE,43,0.0,0.0,87,0.00,SCT,,0.00,WeatherDisplay:10.37,2013-10-30 10:04:00,
2013-10-30 06:09:00,60.1,56.2,30.16,NE,43,0.0,0.0,87,0.00,SCT,,0.00,WeatherDisplay:10.37,2013-10-30 10:09:00,
2013-10-30 06:14:00,60.1,56.5,30.16,NE,44,0.0,0.0,88,0.00,SCT,,0.00,WeatherDisplay:10.37,2013-10-30 10:14:00,
2013-10-30 06:19:00,60.2,56.6,30.17,NE,44,0.0,0.0,88,0.00,SCT,,0.00,WeatherDisplay:10.37,2013-10-30 10:19:00,
2013-10-30 06:24:00,60.2,56.6,30.17,NE,44,0.0,0.0,88,0.00,SCT,,0.00,WeatherDisplay:10.37,2013-10-30 10:24:00,
2013-10-30 06:29:00,60.2,56.6,30.17,NE,43,0.0,0.0,88,0.00,SCT,,0.00,WeatherDisplay:10.37,2013-10-30 10:29:00,
2013-10-30 06:34:00,60.2,56.6,30.17,NE,44,0.0,0.0,88,0.00,SCT,,0.00,WeatherDisplay:10.37,2013-10-30 10:34:00,
2013-10-30 06:39:00,60.2,56.6,30.17,NE,43,0.0,0.0,88,0.00,SCT,,0.00,WeatherDisplay:10.37,2013-10-30 10:39:00,
2013-10-30 06:44:00,60.2,56.6,30.17,NE,44,0.0,0.0,88,0.00,SCT,,0.00,WeatherDisplay:10.37,2013-10-30 10:44:00,
2013-10-30 06:49:00,60.2,56.6,30.17,NE,44,0.0,0.0,88,0.00,SCT,,0.00,WeatherDisplay:10.37,2013-10-30 10:49:00,
2013-10-30 06:54:00,60.4,56.8,30.17,NE,44,0.0,0.0,88,0.00,SCT,,0.00,WeatherDisplay:10.37,2013-10-30 10:54:00,
2013-10-30 06:59:00,60.2,56.6,30.17,NE,44,0.0,0.0,88,0.00,SCT,,0.00,WeatherDisplay:10.37,2013-10-30 10:59:00,
2013-10-30 07:04:00,60.2,56.6,30.18,NE,44,0.0,0.0,88,0.00,SCT,,0.00,WeatherDisplay:10.37,2013-10-30 11:04:00,
2013-10-30 07:09:00,60.4,56.8,30.18,NE,44,0.0,0.0,88,0.00,SCT,,0.00,WeatherDisplay:10.37,2013-10-30 11:09:00,
2013-10-30 07:14:00,60.4,56.8,30.18,NE,44,0.0,0.0,88,0.00,SCT,,0.00,WeatherDisplay:10.37,2013-10-30 11:14:00,
2013-10-30 07:19:00,60.4,56.8,30.18,NE,44,0.0,0.0,88,0.00,SCT,,0.00,WeatherDisplay:10.37,2013-10-30 11:19:00,
2013-10-30 07:24:00,60.4,56.8,30.18,NE,43,0.0,0.0,88,0.00,SCT,,0.00,WeatherDisplay:10.37,2013-10-30 11:24:00,
2013-10-30 07:29:00,60.4,56.8,30.18,NE,44,0.0,0.0,88,0.00,SCT,,0.00,WeatherDisplay:10.37,2013-10-30 11:29:00,
2013-10-30 07:34:00,60.4,56.8,30.18,NE,44,0.0,0.0,88,0.00,SCT,,0.00,WeatherDisplay:10.37,2013-10-30 11:34:00,
2013-10-30 07:39:00,60.4,56.8,30.18,NE,44,0.0,0.0,88,0.00,SCT,,0.00,WeatherDisplay:10.37,2013-10-30 11:39:00,
2013-10-30 07:44:00,60.4,56.8,30.18,NE,44,0.0,0.0,88,0.00,SCT,,0.00,WeatherDisplay:10.37,2013-10-30 11:44:00,
2013-10-30 07:49:00,60.5,57.2,30.18,NE,44,0.0,0.0,89,0.00,SCT,,0.00,WeatherDisplay:10.37,2013-10-30 11:49:00,
2013-10-30 07:54:00,60.5,57.2,30.19,NE,44,0.0,0.0,89,0.00,SCT,,0.00,WeatherDisplay:10.37,2013-10-30 11:54:00,
2013-10-30 07:59:00,60.5,57.2,30.19,NE,43,0.0,0.0,89,0.00,SCT,,0.00,WeatherDisplay:10.37,2013-10-30 11:59:00,
2013-10-30 08:04:00,60.7,57.4,30.19,NE,44,0.0,0.0,89,0.00,BKN,,0.00,WeatherDisplay:10.37,2013-10-30 12:04:00,
2013-10-30 08:09:00,60.7,57.4,30.18,NE,43,0.0,0.0,89,0.00,BKN,,0.00,WeatherDisplay:10.37,2013-10-30 12:09:00,
2013-10-30 08:14:00,60.9,57.6,30.18,NE,44,0.0,0.0,89,0.00,BKN,,0.00,WeatherDisplay:10.37,2013-10-30 12:14:00,
2013-10-30 08:19:00,60.9,57.6,30.18,NE,44,0.0,0.0,89,0.00,BKN,,0.00,WeatherDisplay:10.37,2013-10-30 12:19:00,
2013-10-30 08:24:00,61.0,57.7,30.18,NE,44,0.0,0.0,89,0.00,BKN,,0.00,WeatherDisplay:10.37,2013-10-30 12:24:00,
2013-10-30 08:29:00,61.0,57.7,30.18,NE,44,0.0,0.0,89,0.00,BKN,,0.00,WeatherDisplay:10.37,2013-10-30 12:29:00,
2013-10-30 08:34:00,61.2,57.9,30.18,NE,43,0.0,0.0,89,0.00,BKN,,0.00,WeatherDisplay:10.37,2013-10-30 12:34:00,
2013-10-30 08:39:00,61.2,57.9,30.19,NE,43,0.0,0.0,89,0.00,BKN,,0.00,WeatherDisplay:10.37,2013-10-30 12:39:00,
2013-10-30 08:44:00,61.3,58.0,30.19,NE,43,0.0,0.0,89,0.00,BKN,,0.00,WeatherDisplay:10.37,2013-10-30 12:44:00,
2013-10-30 08:49:00,61.3,58.0,30.19,NE,43,0.0,0.0,89,0.00,BKN,,0.00,WeatherDisplay:10.37,2013-10-30 12:49:00,
2013-10-30 08:54:00,61.5,58.2,30.19,NE,43,0.0,0.0,89,0.00,BKN,,0.00,WeatherDisplay:10.37,2013-10-30 12:54:00,
2013-10-30 08:59:00,61.6,58.3,30.20,NE,43,0.0,0.0,89,0.00,BKN,,0.00,WeatherDisplay:10.37,2013-10-30 12:59:00,
2013-10-30 09:04:00,61.8,58.8,30.20,NE,43,0.0,0.0,90,0.00,SCT,,0.00,WeatherDisplay:10.37,2013-10-30 13:04:00,
2013-10-30 09:09:00,62.1,59.1,30.20,NE,43,0.0,0.0,90,0.00,SCT,,0.00,WeatherDisplay:10.37,2013-10-30 13:09:00,
2013-10-30 09:14:00,62.4,59.4,30.20,NE,42,0.1,1.2,90,0.00,SCT,,0.00,WeatherDisplay:10.37,2013-10-30 13:14:00,
2013-10-30 09:19:00,63.1,60.4,30.20,NE,34,0.0,0.0,91,0.00,SCT,,0.00,WeatherDisplay:10.37,2013-10-30 13:19:00,
2013-10-30 09:24:00,63.7,61.0,30.20,NNE,32,0.0,0.0,91,0.00,SCT,,0.00,WeatherDisplay:10.37,2013-10-30 13:24:00,
2013-10-30 09:29:00,64.0,61.3,30.21,NNE,32,0.0,0.0,91,0.00,SCT,,0.00,WeatherDisplay:10.37,2013-10-30 13:29:00,
2013-10-30 09:34:00,65.2,62.5,30.21,NNE,31,0.0,0.0,91,0.00,SCT,,0.00,WeatherDisplay:10.37,2013-10-30 13:34:00,
2013-10-30 09:39:00,65.5,62.5,30.21,NNE,31,0.0,0.0,90,0.00,SCT,,0.00,WeatherDisplay:10.37,2013-10-30 13:39:00,
2013-10-30 09:44:00,66.0,63.3,30.21,NNE,30,0.2,2.3,91,0.00,SCT,,0.00,WeatherDisplay:10.37,2013-10-30 13:44:00,
2013-10-30 09:49:00,66.9,63.9,30.21,NNE,27,0.0,0.0,90,0.00,SCT,,0.00,WeatherDisplay:10.37,2013-10-30 13:49:00,
2013-10-30 09:54:00,67.1,64.1,30.21,NNE,27,0.0,0.0,90,0.00,SCT,,0.00,WeatherDisplay:10.37,2013-10-30 13:54:00,
2013-10-30 09:59:00,67.6,64.6,30.21,NNE,27,0.0,0.0,90,0.00,SCT,,0.00,WeatherDisplay:10.37,2013-10-30 13:59:00,
2013-10-30 10:04:00,68.1,65.1,30.21,NE,39,0.0,0.0,90,0.00,BKN,,0.00,WeatherDisplay:10.37,2013-10-30 14:04:00,
2013-10-30 10:09:00,68.4,65.0,30.22,NE,41,0.0,0.0,89,0.00,BKN,,0.00,WeatherDisplay:10.37,2013-10-30 14:09:00,
2013-10-30 10:14:00,69.4,65.7,30.22,NE,39,1.2,2.3,88,0.00,BKN,,0.00,WeatherDisplay:10.37,2013-10-30 14:14:00,
2013-10-30 10:19:00,70.6,65.9,30.21,NE,37,0.7,3.5,85,0.00,BKN,,0.00,WeatherDisplay:10.37,2013-10-30 14:19:00,
2013-10-30 10:24:00,71.1,65.7,30.21,NE,50,0.1,3.0,83,0.00,BKN,,0.00,WeatherDisplay:10.37,2013-10-30 14:24:00,
2013-10-30 10:29:00,71.3,65.5,30.21,NE,51,0.0,0.0,82,0.00,BKN,,0.00,WeatherDisplay:10.37,2013-10-30 14:29:00,
2013-10-30 10:34:00,71.3,65.5,30.21,NE,50,0.1,1.2,82,0.00,BKN,,0.00,WeatherDisplay:10.37,2013-10-30 14:34:00,
2013-10-30 10:39:00,71.6,65.5,30.21,NNE,16,1.1,3.5,81,0.00,BKN,,0.00,WeatherDisplay:10.37,2013-10-30 14:39:00,
2013-10-30 10:44:00,72.7,65.4,30.21,NE,36,2.7,5.0,78,0.00,BKN,,0.00,WeatherDisplay:10.37,2013-10-30 14:44:00,
2013-10-30 10:49:00,73.9,65.9,30.21,NE,35,0.1,1.2,76,0.00,BKN,,0.00,WeatherDisplay:10.37,2013-10-30 14:49:00,
2013-10-30 10:54:00,74.2,65.4,30.21,NE,46,0.5,2.3,74,0.00,BKN,,0.00,WeatherDisplay:10.37,2013-10-30 14:54:00,
2013-10-30 10:59:00,75.1,65.5,30.20,NE,44,0.9,3.5,72,0.00,BKN,,0.00,WeatherDisplay:10.37,2013-10-30 14:59:00,
2013-10-30 11:04:00,75.4,64.9,30.20,NE,54,0.1,1.2,70,0.00,BKN,,0.00,WeatherDisplay:10.37,2013-10-30 15:04:00,
2013-10-30 11:09:00,75.8,65.3,30.20,NE,51,0.4,3.5,70,0.00,BKN,,0.00,WeatherDisplay:10.37,2013-10-30 15:09:00,
2013-10-30 11:14:00,76.1,64.8,30.20,NE,53,1.7,3.5,68,0.00,BKN,,0.00,WeatherDisplay:10.37,2013-10-30 15:14:00,
2013-10-30 11:19:00,76.0,64.7,30.20,NNE,14,3.2,4.6,68,0.00,BKN,,0.00,WeatherDisplay:10.37,2013-10-30 15:19:00,
2013-10-30 11:24:00,76.3,65.4,30.20,ENE,70,0.0,0.0,69,0.00,BKN,,0.00,WeatherDisplay:10.37,2013-10-30 15:24:00,
2013-10-30 11:29:00,76.1,64.8,30.20,ENE,63,0.4,2.3,68,0.00,BKN,,0.00,WeatherDisplay:10.37,2013-10-30 15:29:00,
2013-10-30 11:34:00,76.7,65.3,30.20,North,10,0.9,3.5,68,0.00,BKN,,0.00,WeatherDisplay:10.37,2013-10-30 15:34:00,
2013-10-30 11:39:00,77.4,65.6,30.20,NE,47,0.0,0.0,67,0.00,BKN,,0.00,WeatherDisplay:10.37,2013-10-30 15:39:00,
2013-10-30 11:44:00,77.6,65.3,30.20,NE,34,0.0,0.0,66,0.00,BKN,,0.00,WeatherDisplay:10.37,2013-10-30 15:44:00,
2013-10-30 11:49:00,77.6,65.8,30.20,NE,35,0.0,0.0,67,0.00,BKN,,0.00,WeatherDisplay:10.37,2013-10-30 15:49:00,
2013-10-30 11:54:00,77.6,64.9,30.20,NE,36,0.0,0.0,65,0.00,BKN,,0.00,WeatherDisplay:10.37,2013-10-30 15:54:00,
2013-10-30 11:59:00,77.9,64.7,30.20,NE,45,0.0,1.2,64,0.00,BKN,,0.00,WeatherDisplay:10.37,2013-10-30 15:59:00,
2013-10-30 12:04:00,77.7,64.1,30.20,NE,51,0.0,1.2,63,0.00,BKN,,0.00,WeatherDisplay:10.37,2013-10-30 16:04:00,
2013-10-30 12:09:00,77.2,64.1,30.19,East,93,0.0,0.0,64,0.00,BKN,,0.00,WeatherDisplay:10.37,2013-10-30 16:09:00,
2013-10-30 12:14:00,76.8,63.7,30.19,NE,42,0.7,3.5,64,0.00,BKN,,0.00,WeatherDisplay:10.37,2013-10-30 16:14:00,
2013-10-30 12:19:00,76.8,64.1,30.19,NE,54,0.9,3.5,65,0.00,BKN,,0.00,WeatherDisplay:10.37,2013-10-30 16:19:00,
2013-10-30 12:24:00,77.4,64.3,30.19,NE,45,0.8,5.8,64,0.00,BKN,,0.00,WeatherDisplay:10.37,2013-10-30 16:24:00,
2013-10-30 12:29:00,77.4,64.7,30.19,NNE,14,0.0,0.0,65,0.00,BKN,,0.00,WeatherDisplay:10.37,2013-10-30 16:29:00,
2013-10-30 12:34:00,77.0,64.3,30.19,NNE,25,0.2,6.0,65,0.00,BKN,,0.00,WeatherDisplay:10.37,2013-10-30 16:34:00,
2013-10-30 12:39:00,77.2,64.5,30.19,NE,56,2.9,6.9,65,0.00,BKN,,0.00,WeatherDisplay:10.37,2013-10-30 16:39:00,
2013-10-30 12:44:00,77.4,64.7,30.19,NE,44,0.0,1.2,65,0.00,BKN,,0.00,WeatherDisplay:10.37,2013-10-30 16:44:00,
2013-10-30 12:49:00,77.2,65.0,30.19,NNE,32,0.2,2.3,66,0.00,BKN,,0.00,WeatherDisplay:10.37,2013-10-30 16:49:00,
2013-10-30 12:54:00,77.4,66.0,30.18,NNE,31,0.0,0.0,68,0.00,BKN,,0.00,WeatherDisplay:10.37,2013-10-30 16:54:00,
2013-10-30 12:59:00,77.9,65.2,30.18,NNW,333,2.8,9.2,65,0.00,BKN,,0.00,WeatherDisplay:10.37,2013-10-30 16:59:00,
2013-10-30 13:04:00,78.1,64.9,30.18,ENE,75,1.5,3.5,64,0.00,BKN,,0.00,WeatherDisplay:10.37,2013-10-30 17:04:00,
2013-10-30 13:09:00,78.1,65.4,30.18,ENE,61,0.8,3.5,65,0.00,BKN,,0.00,WeatherDisplay:10.37,2013-10-30 17:09:00,
2013-10-30 13:14:00,78.5,64.4,30.18,NE,49,1.8,3.5,62,0.00,BKN,,0.00,WeatherDisplay:10.37,2013-10-30 17:14:00,
2013-10-30 13:19:00,78.6,64.5,30.17,NNE,14,0.8,3.5,62,0.00,BKN,,0.00,WeatherDisplay:10.37,2013-10-30 17:19:00,
2013-10-30 13:24:00,78.8,64.2,30.17,NNE,30,0.8,4.0,61,0.00,BKN,,0.00,WeatherDisplay:10.37,2013-10-30 17:24:00,
2013-10-30 13:29:00,77.7,64.5,30.17,NNE,32,0.0,1.0,64,0.00,BKN,,0.00,WeatherDisplay:10.37,2013-10-30 17:29:00,
2013-10-30 13:34:00,77.2,64.5,30.17,NNE,21,0.0,1.2,65,0.00,BKN,,0.00,WeatherDisplay:10.37,2013-10-30 17:34:00,
2013-10-30 13:39:00,76.8,64.1,30.17,ENE,60,0.7,3.5,65,0.00,BKN,,0.00,WeatherDisplay:10.37,2013-10-30 17:39:00,
2013-10-30 13:44:00,77.9,65.6,30.16,ENE,60,0.0,0.0,66,0.00,BKN,,0.00,WeatherDisplay:10.37,2013-10-30 17:44:00,
2013-10-30 13:49:00,78.3,65.1,30.16,NE,52,1.4,4.0,64,0.00,BKN,,0.00,WeatherDisplay:10.37,2013-10-30 17:49:00,
2013-10-30 13:54:00,77.6,64.5,30.16,ENE,57,2.3,6.9,64,0.00,BKN,,0.00,WeatherDisplay:10.37,2013-10-30 17:54:00,
2013-10-30 13:59:00,77.2,65.0,30.15,ENE,70,1.8,5.8,66,0.00,BKN,,0.00,WeatherDisplay:10.37,2013-10-30 17:59:00,
2013-10-30 14:04:00,78.1,64.9,30.15,ENE,73,1.5,4.6,64,0.00,BKN,,0.00,WeatherDisplay:10.37,2013-10-30 18:04:00,
2013-10-30 14:09:00,77.9,64.7,30.15,NE,50,1.2,4.0,64,0.00,BKN,,0.00,WeatherDisplay:10.37,2013-10-30 18:09:00,
2013-10-30 14:14:00,78.1,64.9,30.15,ENE,66,2.8,4.6,64,0.00,BKN,,0.00,WeatherDisplay:10.37,2013-10-30 18:14:00,
2013-10-30 14:19:00,77.9,65.2,30.14,ENE,66,0.0,1.2,65,0.00,BKN,,0.00,WeatherDisplay:10.37,2013-10-30 18:19:00,
2013-10-30 14:24:00,78.1,65.4,30.14,ENE,71,0.0,0.0,65,0.00,BKN,,0.00,WeatherDisplay:10.37,2013-10-30 18:24:00,
2013-10-30 14:29:00,77.9,65.2,30.13,NNE,17,1.4,3.5,65,0.00,BKN,,0.00,WeatherDisplay:10.37,2013-10-30 18:29:00,
2013-10-30 14:34:00,78.5,65.3,30.13,NE,39,0.2,4.6,64,0.00,BKN,,0.00,WeatherDisplay:10.37,2013-10-30 18:34:00,
2013-10-30 14:39:00,78.5,65.3,30.13,NE,42,0.1,2.3,64,0.00,BKN,,0.00,WeatherDisplay:10.37,2013-10-30 18:39:00,
2013-10-30 14:44:00,78.6,65.4,30.13,NE,42,0.1,3.5,64,0.00,BKN,,0.00,WeatherDisplay:10.37,2013-10-30 18:44:00,
2013-10-30 14:49:00,79.0,65.3,30.13,ENE,62,2.1,3.5,63,0.00,BKN,,0.00,WeatherDisplay:10.37,2013-10-30 18:49:00,
2013-10-30 14:54:00,78.5,65.3,30.12,NE,50,1.0,4.0,64,0.00,BKN,,0.00,WeatherDisplay:10.37,2013-10-30 18:54:00,
2013-10-30 14:59:00,78.3,66.0,30.12,ESE,121,0.2,1.2,66,0.00,BKN,,0.00,WeatherDisplay:10.37,2013-10-30 18:59:00,
2013-10-30 15:04:00,78.5,65.3,30.12,NE,56,0.0,3.5,64,0.00,BKN,,0.00,WeatherDisplay:10.37,2013-10-30 19:04:00,
2013-10-30 15:09:00,78.3,65.6,30.12,ENE,71,0.9,2.0,65,0.00,BKN,,0.00,WeatherDisplay:10.37,2013-10-30 19:09:00,
2013-10-30 15:14:00,77.6,65.3,30.12,ENE,57,0.0,0.0,66,0.00,BKN,,0.00,WeatherDisplay:10.37,2013-10-30 19:14:00,
2013-10-30 15:19:00,77.0,65.6,30.12,NE,37,0.0,3.5,68,0.00,BKN,,0.00,WeatherDisplay:10.37,2013-10-30 19:19:00,
2013-10-30 15:24:00,77.4,66.0,30.12,NE,37,0.0,0.0,68,0.00,BKN,,0.00,WeatherDisplay:10.37,2013-10-30 19:24:00,
2013-10-30 15:29:00,77.6,64.9,30.12,ENE,64,1.1,2.0,65,0.00,BKN,,0.00,WeatherDisplay:10.37,2013-10-30 19:29:00,
2013-10-30 15:34:00,77.6,64.9,30.12,NE,45,0.1,5.8,65,0.00,BKN,,0.00,WeatherDisplay:10.37,2013-10-30 19:34:00,
2013-10-30 15:39:00,77.4,65.6,30.11,NE,46,0.0,1.2,67,0.00,BKN,,0.00,WeatherDisplay:10.37,2013-10-30 19:39:00,
2013-10-30 15:44:00,77.0,64.8,30.11,ENE,65,2.9,9.2,66,0.00,BKN,,0.00,WeatherDisplay:10.37,2013-10-30 19:44:00,
2013-10-30 15:49:00,77.0,65.2,30.10,ENE,59,1.5,3.5,67,0.00,BKN,,0.00,WeatherDisplay:10.37,2013-10-30 19:49:00,
2013-10-30 15:54:00,77.0,64.8,30.10,ENE,68,3.3,11.5,66,0.00,BKN,,0.00,WeatherDisplay:10.37,2013-10-30 19:54:00,
2013-10-30 15:59:00,77.0,64.8,30.11,NNE,23,0.6,8.1,66,0.00,BKN,,0.00,WeatherDisplay:10.37,2013-10-30 19:59:00,
2013-10-30 16:04:00,77.2,64.5,30.11,North,6,0.7,4.6,65,0.00,BKN,,0.00,WeatherDisplay:10.37,2013-10-30 20:04:00,
2013-10-30 16:09:00,77.4,64.3,30.11,NNE,17,4.5,6.9,64,0.00,BKN,,0.00,WeatherDisplay:10.37,2013-10-30 20:09:00,
2013-10-30 16:14:00,77.0,64.8,30.11,NE,44,0.0,3.5,66,0.00,BKN,,0.00,WeatherDisplay:10.37,2013-10-30 20:14:00,
2013-10-30 16:19:00,77.0,64.8,30.11,NNE,30,1.6,5.8,66,0.00,BKN,,0.00,WeatherDisplay:10.37,2013-10-30 20:19:00,
2013-10-30 16:24:00,77.2,64.5,30.11,ENE,62,0.1,3.5,65,0.00,BKN,,0.00,WeatherDisplay:10.37,2013-10-30 20:24:00,
2013-10-30 16:29:00,77.2,65.0,30.11,ENE,77,0.0,1.0,66,0.00,BKN,,0.00,WeatherDisplay:10.37,2013-10-30 20:29:00,
2013-10-30 16:34:00,77.4,63.8,30.12,NNE,24,1.7,6.9,63,0.00,BKN,,0.00,WeatherDisplay:10.37,2013-10-30 20:34:00,
2013-10-30 16:39:00,77.2,64.1,30.12,NE,39,0.7,3.5,64,0.00,BKN,,0.00,WeatherDisplay:10.37,2013-10-30 20:39:00,
2013-10-30 16:44:00,76.8,63.7,30.12,NE,47,2.4,6.9,64,0.00,BKN,,0.00,WeatherDisplay:10.37,2013-10-30 20:44:00,
2013-10-30 16:49:00,77.0,63.9,30.11,North,360,2.1,5.8,64,0.00,BKN,,0.00,WeatherDisplay:10.37,2013-10-30 20:49:00,
2013-10-30 16:54:00,76.7,63.6,30.11,NNE,33,0.0,9.2,64,0.00,BKN,,0.00,WeatherDisplay:10.37,2013-10-30 20:54:00,
2013-10-30 16:59:00,76.5,63.4,30.12,NE,44,0.9,3.5,64,0.00,BKN,,0.00,WeatherDisplay:10.37,2013-10-30 20:59:00,
2013-10-30 17:04:00,76.7,64.0,30.11,NNE,31,2.2,3.5,65,0.00,BKN,,0.00,WeatherDisplay:10.37,2013-10-30 21:04:00,
2013-10-30 17:09:00,76.3,63.2,30.11,ENE,58,0.6,3.5,64,0.00,BKN,,0.00,WeatherDisplay:10.37,2013-10-30 21:09:00,
2013-10-30 17:14:00,76.1,63.5,30.12,NE,53,0.9,4.6,65,0.00,BKN,,0.00,WeatherDisplay:10.37,2013-10-30 21:14:00,
2013-10-30 17:19:00,76.1,63.9,30.12,NE,49,0.6,3.5,66,0.00,BKN,,0.00,WeatherDisplay:10.37,2013-10-30 21:19:00,
2013-10-30 17:24:00,76.1,63.5,30.11,NE,46,0.5,2.3,65,0.00,BKN,,0.00,WeatherDisplay:10.37,2013-10-30 21:24:00,
2013-10-30 17:29:00,76.3,63.7,30.12,NE,35,1.8,4.0,65,0.00,BKN,,0.00,WeatherDisplay:10.37,2013-10-30 21:29:00,
2013-10-30 17:34:00,76.3,63.2,30.12,NNE,21,1.1,6.9,64,0.00,BKN,,0.00,WeatherDisplay:10.37,2013-10-30 21:34:00,
2013-10-30 17:39:00,76.3,63.7,30.12,NNE,22,2.2,4.6,65,0.00,BKN,,0.00,WeatherDisplay:10.37,2013-10-30 21:39:00,
2013-10-30 17:44:00,76.1,63.0,30.12,NNW,338,0.0,0.0,64,0.00,BKN,,0.00,WeatherDisplay:10.37,2013-10-30 21:44:00,
2013-10-30 17:49:00,76.1,63.0,30.12,North,360,1.6,3.5,64,0.00,BKN,,0.00,WeatherDisplay:10.37,2013-10-30 21:49:00,
2013-10-30 17:54:00,76.0,62.9,30.12,North,10,0.0,1.2,64,0.00,BKN,,0.00,WeatherDisplay:10.37,2013-10-30 21:54:00,
2013-10-30 17:59:00,75.8,62.8,30.12,ENE,60,0.0,3.5,64,0.00,BKN,,0.00,WeatherDisplay:10.37,2013-10-30 21:59:00,
2013-10-30 18:04:00,75.6,63.0,30.12,NE,52,1.0,3.5,65,0.00,BKN,,0.00,WeatherDisplay:10.37,2013-10-30 22:04:00,
2013-10-30 18:09:00,75.3,62.7,30.12,NE,52,0.1,1.2,65,0.00,BKN,,0.00,WeatherDisplay:10.37,2013-10-30 22:09:00,
2013-10-30 18:14:00,75.1,62.5,30.12,NE,54,0.0,0.0,65,0.00,BKN,,0.00,WeatherDisplay:10.37,2013-10-30 22:14:00,
2013-10-30 18:19:00,75.1,62.5,30.12,East,88,1.3,0.0,65,0.00,BKN,,0.00,WeatherDisplay:10.37,2013-10-30 22:19:00,
2013-10-30 18:24:00,74.7,62.1,30.12,East,85,0.0,3.5,65,0.00,BKN,,0.00,WeatherDisplay:10.37,2013-10-30 22:24:00,
2013-10-30 18:29:00,74.6,62.1,30.12,ENE,70,0.0,0.0,65,0.00,BKN,,0.00,WeatherDisplay:10.37,2013-10-30 22:29:00,
2013-10-30 18:34:00,74.4,61.9,30.12,ENE,73,0.8,1.2,65,0.00,BKN,,0.00,WeatherDisplay:10.37,2013-10-30 22:34:00,
2013-10-30 18:39:00,74.0,61.5,30.12,ENE,63,0.0,4.6,65,0.00,BKN,,0.00,WeatherDisplay:10.37,2013-10-30 22:39:00,
2013-10-30 18:44:00,73.9,61.4,30.12,ENE,58,0.0,3.5,65,0.00,BKN,,0.00,WeatherDisplay:10.37,2013-10-30 22:44:00,
2013-10-30 18:49:00,73.7,61.6,30.11,ENE,58,0.0,0.0,66,0.00,BKN,,0.00,WeatherDisplay:10.37,2013-10-30 22:49:00,
2013-10-30 18:54:00,73.5,61.4,30.12,ENE,58,0.0,0.0,66,0.00,BKN,,0.00,WeatherDisplay:10.37,2013-10-30 22:54:00,
2013-10-30 18:59:00,73.3,61.3,30.12,ENE,58,0.6,2.3,66,0.00,BKN,,0.00,WeatherDisplay:10.37,2013-10-30 22:59:00,
2013-10-30 19:04:00,73.2,61.6,30.12,ENE,58,0.0,0.0,67,0.00,BKN,,0.00,WeatherDisplay:10.37,2013-10-30 23:04:00,
2013-10-30 19:09:00,73.0,61.4,30.12,ENE,58,0.0,0.0,67,0.00,BKN,,0.00,WeatherDisplay:10.37,2013-10-30 23:09:00,
2013-10-30 19:14:00,72.8,61.2,30.12,ENE,58,0.0,0.0,67,0.00,BKN,,0.00,WeatherDisplay:10.37,2013-10-30 23:14:00,
2013-10-30 19:19:00,72.7,61.1,30.12,ENE,58,0.0,0.0,67,0.00,BKN,,0.00,WeatherDisplay:10.37,2013-10-30 23:19:00,
2013-10-30 19:24:00,72.5,60.9,30.12,ENE,58,0.0,0.0,67,0.00,BKN,,0.00,WeatherDisplay:10.37,2013-10-30 23:24:00,
2013-10-30 19:29:00,72.3,61.1,30.12,ENE,58,0.0,0.0,68,0.00,BKN,,0.00,WeatherDisplay:10.37,2013-10-30 23:29:00,
2013-10-30 19:34:00,72.1,61.0,30.12,ENE,58,0.0,0.0,68,0.00,BKN,,0.00,WeatherDisplay:10.37,2013-10-30 23:34:00,
2013-10-30 19:39:00,72.0,61.3,30.12,ENE,58,0.0,0.0,69,0.00,BKN,,0.00,WeatherDisplay:10.37,2013-10-30 23:39:00,
2013-10-30 19:44:00,71.8,61.1,30.13,ENE,58,0.0,0.0,69,0.00,BKN,,0.00,WeatherDisplay:10.37,2013-10-30 23:44:00,
2013-10-30 19:49:00,71.6,61.3,30.13,ENE,58,0.0,0.0,70,0.00,BKN,,0.00,WeatherDisplay:10.37,2013-10-30 23:49:00,
2013-10-30 19:54:00,71.5,61.2,30.13,ENE,58,0.0,0.0,70,0.00,BKN,,0.00,WeatherDisplay:10.37,2013-10-30 23:54:00,
2013-10-30 19:59:00,71.3,61.4,30.12,ENE,58,0.0,0.0,71,0.00,BKN,,0.00,WeatherDisplay:10.37,2013-10-30 23:59:00,
2013-10-30 20:04:00,71.3,61.8,30.12,ENE,58,0.0,0.0,72,0.00,SCT,,0.00,WeatherDisplay:10.37,2013-10-31 00:04:00,
2013-10-30 20:09:00,71.1,61.6,30.12,ENE,58,0.0,0.0,72,0.00,SCT,,0.00,WeatherDisplay:10.37,2013-10-31 00:09:00,
2013-10-30 20:14:00,70.8,61.7,30.12,ENE,58,0.0,0.0,73,0.00,SCT,,0.00,WeatherDisplay:10.37,2013-10-31 00:14:00,
2013-10-30 20:19:00,70.6,61.5,30.12,ENE,58,0.0,0.0,73,0.00,SCT,,0.00,WeatherDisplay:10.37,2013-10-31 00:19:00,
2013-10-30 20:24:00,70.4,61.3,30.12,ENE,58,0.0,0.0,73,0.00,SCT,,0.00,WeatherDisplay:10.37,2013-10-31 00:24:00,
2013-10-30 20:29:00,70.3,61.6,30.12,ENE,58,0.0,0.0,74,0.00,SCT,,0.00,WeatherDisplay:10.37,2013-10-31 00:29:00,
2013-10-30 20:35:00,70.3,61.6,30.12,ENE,58,0.0,0.0,74,0.00,SCT,,0.00,WeatherDisplay:10.37,2013-10-31 00:35:00,
2013-10-30 20:40:00,70.1,61.4,30.12,ENE,58,0.1,0.0,74,0.00,SCT,,0.00,WeatherDisplay:10.37,2013-10-31 00:40:00,
2013-10-30 20:45:00,69.9,61.6,30.12,ENE,58,0.0,0.0,75,0.00,SCT,,0.00,WeatherDisplay:10.37,2013-10-31 00:45:00,
2013-10-30 20:50:00,69.9,61.6,30.12,ENE,58,0.0,1.2,75,0.00,SCT,,0.00,WeatherDisplay:10.37,2013-10-31 00:50:00,
2013-10-30 20:55:00,69.8,61.9,30.12,ENE,58,0.0,0.0,76,0.00,SCT,,0.00,WeatherDisplay:10.37,2013-10-31 00:55:00,
2013-10-30 21:00:00,69.6,61.7,30.12,ENE,58,0.0,0.0,76,0.00,SCT,,0.00,WeatherDisplay:10.37,2013-10-31 01:00:00,
2013-10-30 21:05:00,69.6,61.7,30.12,ENE,58,0.0,0.0,76,0.00,SCT,,0.00,WeatherDisplay:10.37,2013-10-31 01:05:00,
2013-10-30 21:10:00,69.4,61.5,30.12,ENE,58,0.0,0.0,76,0.00,SCT,,0.00,WeatherDisplay:10.37,2013-10-31 01:10:00,
2013-10-30 21:15:00,69.3,61.4,30.12,ENE,58,0.0,0.0,76,0.00,SCT,,0.00,WeatherDisplay:10.37,2013-10-31 01:15:00,
2013-10-30 21:20:00,69.3,61.4,30.12,ENE,58,0.0,0.0,76,0.00,SCT,,0.00,WeatherDisplay:10.37,2013-10-31 01:20:00,
2013-10-30 21:25:00,69.1,61.6,30.11,ENE,58,0.0,0.0,77,0.00,SCT,,0.00,WeatherDisplay:10.37,2013-10-31 01:25:00,
2013-10-30 21:30:00,69.1,61.6,30.11,ENE,58,0.0,0.0,77,0.00,SCT,,0.00,WeatherDisplay:10.37,2013-10-31 01:30:00,
2013-10-30 21:35:00,68.9,61.4,30.11,ENE,58,0.0,0.0,77,0.00,SCT,,0.00,WeatherDisplay:10.37,2013-10-31 01:35:00,
2013-10-30 21:40:00,68.9,61.4,30.12,ENE,58,0.0,0.0,77,0.00,SCT,,0.00,WeatherDisplay:10.37,2013-10-31 01:40:00,
2013-10-30 21:45:00,68.8,61.7,30.12,ENE,58,0.0,0.0,78,0.00,SCT,,0.00,WeatherDisplay:10.37,2013-10-31 01:45:00,
2013-10-30 21:50:00,68.8,61.7,30.11,ENE,58,0.0,0.0,78,0.00,SCT,,0.00,WeatherDisplay:10.37,2013-10-31 01:50:00,
2013-10-30 21:55:00,68.6,61.5,30.11,ENE,58,0.0,0.0,78,0.00,SCT,,0.00,WeatherDisplay:10.37,2013-10-31 01:55:00,
2013-10-30 22:00:00,68.6,61.8,30.11,ENE,58,0.0,0.0,79,0.00,SCT,,0.00,WeatherDisplay:10.37,2013-10-31 02:00:00,
2013-10-30 22:05:00,68.4,61.6,30.12,ENE,58,0.0,0.0,79,0.00,BKN,,0.00,WeatherDisplay:10.37,2013-10-31 02:05:00,
2013-10-30 22:10:00,68.4,61.6,30.12,ENE,58,0.0,0.0,79,0.00,BKN,,0.00,WeatherDisplay:10.37,2013-10-31 02:10:00,
2013-10-30 22:15:00,68.3,61.5,30.11,ENE,58,0.0,0.0,79,0.00,BKN,,0.00,WeatherDisplay:10.37,2013-10-31 02:15:00,
2013-10-30 22:20:00,68.1,61.3,30.11,ENE,58,0.0,0.0,79,0.00,BKN,,0.00,WeatherDisplay:10.37,2013-10-31 02:20:00,
2013-10-30 22:25:00,67.9,61.1,30.11,ENE,58,0.0,0.0,79,0.00,BKN,,0.00,WeatherDisplay:10.37,2013-10-31 02:25:00,
2013-10-30 22:30:00,67.8,61.0,30.11,ENE,58,0.0,0.0,79,0.00,BKN,,0.00,WeatherDisplay:10.37,2013-10-31 02:30:00,
2013-10-30 22:35:00,67.8,61.0,30.11,ENE,58,0.0,0.0,79,0.00,BKN,,0.00,WeatherDisplay:10.37,2013-10-31 02:35:00,
2013-10-30 22:40:00,67.6,60.9,30.11,ENE,58,0.0,0.0,79,0.00,BKN,,0.00,WeatherDisplay:10.37,2013-10-31 02:40:00,
2013-10-30 22:45:00,67.6,60.9,30.11,ENE,58,0.0,0.0,79,0.00,BKN,,0.00,WeatherDisplay:10.37,2013-10-31 02:45:00,
2013-10-30 22:50:00,67.4,60.7,30.11,ENE,58,0.0,0.0,79,0.00,BKN,,0.00,WeatherDisplay:10.37,2013-10-31 02:50:00,
2013-10-30 22:55:00,67.3,60.6,30.11,ENE,58,0.0,0.0,79,0.00,BKN,,0.00,WeatherDisplay:10.37,2013-10-31 02:55:00,
2013-10-30 23:00:00,67.3,60.6,30.11,ENE,58,0.0,0.0,79,0.00,BKN,,0.00,WeatherDisplay:10.37,2013-10-31 03:00:00,
2013-10-30 23:05:00,67.1,60.4,30.11,ENE,58,0.0,0.0,79,0.00,SCT,,0.00,WeatherDisplay:10.37,2013-10-31 03:05:00,
2013-10-30 23:10:00,67.1,60.4,30.12,ENE,58,0.0,0.0,79,0.00,SCT,,0.00,WeatherDisplay:10.37,2013-10-31 03:10:00,
2013-10-30 23:15:00,66.9,60.2,30.12,ENE,58,0.0,0.0,79,0.00,SCT,,0.00,WeatherDisplay:10.37,2013-10-31 03:15:00,
2013-10-30 23:20:00,66.9,60.2,30.12,ENE,58,0.0,0.0,79,0.00,SCT,,0.00,WeatherDisplay:10.37,2013-10-31 03:20:00,
2013-10-30 23:25:00,66.8,60.1,30.12,ENE,58,0.0,0.0,79,0.00,SCT,,0.00,WeatherDisplay:10.37,2013-10-31 03:25:00,
2013-10-30 23:30:00,66.8,60.1,30.11,ENE,58,0.0,0.0,79,0.00,SCT,,0.00,WeatherDisplay:10.37,2013-10-31 03:30:00,
2013-10-30 23:35:00,66.6,59.9,30.12,ENE,58,0.0,0.0,79,0.00,SCT,,0.00,WeatherDisplay:10.37,2013-10-31 03:35:00,
2013-10-30 23:40:00,66.6,59.9,30.11,ENE,58,0.0,0.0,79,0.00,SCT,,0.00,WeatherDisplay:10.37,2013-10-31 03:40:00,
2013-10-30 23:45:00,66.4,59.7,30.11,ENE,58,0.0,0.0,79,0.00,SCT,,0.00,WeatherDisplay:10.37,2013-10-31 03:45:00,
2013-10-30 23:50:00,66.4,60.0,30.11,ENE,58,0.0,0.0,80,0.00,SCT,,0.00,WeatherDisplay:10.37,2013-10-31 03:50:00,
2013-10-30 23:55:00,66.4,60.0,30.11,ENE,58,0.0,0.0,80,0.00,SCT,,0.00,WeatherDisplay:10.37,2013-10-31 03:55:00,